createdAt,value
2019-01-25T00:05:01.323Z,27.97
2019-01-25T00:07:30.580Z,29.13
2019-01-25T00:10:17.680Z,27.80
2019-01-25T00:12:47.075Z,29.53
2019-01-25T00:15:58.836Z,29.20
2019-01-25T00:18:42.582Z,27.33
2019-01-25T00:21:24.668Z,24.13
2019-01-25T00:27:34.725Z,26.27
2019-01-25T00:30:04.070Z,24.60
2019-01-25T00:32:33.330Z,30.10
2019-01-25T00:35:29.785Z,28.73
2019-01-25T00:44:56.655Z,22.70
2019-01-25T00:48:05.006Z,27.10
2019-01-25T00:50:34.383Z,26.33
2019-01-25T00:56:32.248Z,25.30
2019-01-25T00:59:01.545Z,26.63
2019-01-25T01:05:11.443Z,26.67
2019-01-25T01:08:11.804Z,24.50
2019-01-25T01:14:21.893Z,23.30
2019-01-25T01:17:51.822Z,27.90
2019-01-25T01:23:50.370Z,21.90
2019-01-25T01:29:47.891Z,26.50
2019-01-25T01:32:17.281Z,25.23
2019-01-25T01:34:48.622Z,23.77
2019-01-25T01:38:15.945Z,21.50
2019-01-25T01:44:14.322Z,25.53
2019-01-25T01:50:24.596Z,24.33
2019-01-25T01:56:34.942Z,25.70
2019-01-25T01:59:57.802Z,22.70
2019-01-25T02:06:08.208Z,24.10
2019-01-25T02:08:37.539Z,24.03
2019-01-25T02:11:06.904Z,22.37
2019-01-25T02:13:36.149Z,20.00
2019-01-25T02:20:27.792Z,21.73
2019-01-25T02:22:57.066Z,22.23
2019-01-25T02:25:26.327Z,21.73
2019-01-25T02:30:59.907Z,25.10
2019-01-25T02:37:10.037Z,24.07
2019-01-25T02:39:39.782Z,21.60
2019-01-25T02:42:09.067Z,20.60
2019-01-25T02:44:38.418Z,24.37
2019-01-25T02:47:07.661Z,22.33
2019-01-25T02:49:37.030Z,22.53
2019-01-25T02:53:04.026Z,24.27
2019-01-25T02:55:29.885Z,21.60
2019-01-25T02:57:59.146Z,22.30
2019-01-25T03:00:28.477Z,23.30
2019-01-25T03:02:57.822Z,21.10
2019-01-25T03:05:53.902Z,22.47
2019-01-25T03:08:23.150Z,21.67
2019-01-25T03:11:40.959Z,24.10
2019-01-25T03:14:10.367Z,24.30
2019-01-25T03:16:42.726Z,27.70
2019-01-25T03:22:40.967Z,23.00
2019-01-25T03:31:54.719Z,21.37
2019-01-25T03:41:20.971Z,19.70
2019-01-25T03:47:19.054Z,22.73
2019-01-25T03:50:41.062Z,21.80
2019-01-25T03:53:10.413Z,25.30
2019-01-25T03:55:48.683Z,21.27
2019-01-25T03:58:18.039Z,18.47
2019-01-25T04:01:57.880Z,19.63
2019-01-25T04:04:30.879Z,21.90
2019-01-25T04:10:41.146Z,18.80
2019-01-25T04:16:39.994Z,17.57
2019-01-25T04:23:17.110Z,16.30
2019-01-25T04:25:46.479Z,14.87
2019-01-25T04:28:28.905Z,18.70
2019-01-25T04:31:25.162Z,16.57
2019-01-25T04:33:54.417Z,17.03
2019-01-25T04:39:52.757Z,13.60
2019-01-25T04:42:24.908Z,14.07
2019-01-25T04:44:54.217Z,13.93
2019-01-25T04:47:28.128Z,14.07
2019-01-25T04:49:57.439Z,13.00
2019-01-25T04:52:26.653Z,13.73
2019-01-25T04:55:40.986Z,13.60
2019-01-25T04:58:47.033Z,13.43
2019-01-25T05:01:16.411Z,15.17
2019-01-25T05:03:49.143Z,13.77
2019-01-25T05:09:46.595Z,12.93
2019-01-25T05:15:48.782Z,15.67
2019-01-25T05:18:18.263Z,15.10
2019-01-25T05:20:47.495Z,12.33
2019-01-25T05:24:06.249Z,14.30
2019-01-25T05:26:57.800Z,13.73
2019-01-25T05:33:08.078Z,14.40
2019-01-25T05:39:08.459Z,14.20
2019-01-25T05:42:23.277Z,11.10
2019-01-25T05:48:33.542Z,15.23
2019-01-25T05:54:31.690Z,17.50
2019-01-25T05:57:07.283Z,18.70
2019-01-25T06:00:40.017Z,17.00
2019-01-25T06:03:36.070Z,17.93
2019-01-25T06:06:42.077Z,18.90
2019-01-25T06:13:41.086Z,19.10
2019-01-25T06:19:40.102Z,20.97
2019-01-25T06:23:06.653Z,21.13
2019-01-25T06:29:16.969Z,22.07
2019-01-25T06:32:18.912Z,22.77
2019-01-25T06:34:48.186Z,19.90
2019-01-25T06:37:17.443Z,20.33
2019-01-25T06:39:46.801Z,20.97
2019-01-25T06:42:16.041Z,23.40
2019-01-25T06:48:14.106Z,21.83
2019-01-25T06:54:24.132Z,21.80
2019-01-25T06:56:53.369Z,24.03
2019-01-25T06:59:36.134Z,21.77
2019-01-25T07:02:11.722Z,21.30
2019-01-25T07:08:10.653Z,22.37
2019-01-25T07:11:41.873Z,23.20
2019-01-25T07:14:06.458Z,27.43
2019-01-25T07:16:35.711Z,24.37
2019-01-25T07:19:58.087Z,27.60
2019-01-25T07:22:43.089Z,24.60
2019-01-25T07:25:12.478Z,25.33
2019-01-25T07:30:58.820Z,19.50
2019-01-25T07:33:28.020Z,22.03
2019-01-25T07:35:57.286Z,24.13
2019-01-25T07:42:07.546Z,28.00
2019-01-25T07:44:36.981Z,22.63
2019-01-25T07:47:06.257Z,20.83
2019-01-25T07:49:35.585Z,22.20
2019-01-25T07:55:42.927Z,23.40
2019-01-25T07:58:30.078Z,27.57
2019-01-25T08:04:27.660Z,24.93
2019-01-25T08:11:05.376Z,23.70
2019-01-25T08:13:34.658Z,27.90
2019-01-25T08:16:58.039Z,26.27
2019-01-25T08:19:28.172Z,23.00
2019-01-25T08:21:57.909Z,27.17
2019-01-25T08:24:27.169Z,27.80
2019-01-25T08:27:11.139Z,27.60
2019-01-25T08:29:49.850Z,25.83
2019-01-25T08:33:14.061Z,25.10
2019-01-25T08:35:43.282Z,26.57
2019-01-25T08:42:07.112Z,28.70
2019-01-25T08:44:36.936Z,28.93
2019-01-25T08:47:06.227Z,27.10
2019-01-25T08:49:35.613Z,27.10
2019-01-25T08:55:32.848Z,28.27
2019-01-25T08:58:41.322Z,30.73
2019-01-25T09:01:10.633Z,30.50
2019-01-25T09:07:13.009Z,28.23
2019-01-25T09:14:10.265Z,27.93
2019-01-25T09:16:39.658Z,29.07
2019-01-25T09:19:36.029Z,37.27
2019-01-25T09:22:13.128Z,36.53
2019-01-25T09:25:52.232Z,31.77
2019-01-25T09:28:21.740Z,30.87
2019-01-25T09:30:51.173Z,31.57
2019-01-25T09:33:43.211Z,27.60
2019-01-25T09:36:12.464Z,28.23
2019-01-25T09:42:30.990Z,33.73
2019-01-25T09:48:36.718Z,30.37
2019-01-25T09:58:17.258Z,35.13
2019-01-25T10:05:00.092Z,33.60
2019-01-25T10:11:52.156Z,36.17
2019-01-25T10:17:50.094Z,35.07
2019-01-25T10:27:16.893Z,35.40
2019-01-25T10:30:29.433Z,32.43
2019-01-25T10:33:00.420Z,32.40
2019-01-25T10:49:24.102Z,36.43
2019-01-25T10:55:34.249Z,35.80
2019-01-25T10:58:58.167Z,35.80
2019-01-25T11:05:08.385Z,37.80
2019-01-25T11:07:37.655Z,37.20
2019-01-25T11:10:07.080Z,36.90
2019-01-25T11:16:17.230Z,42.73
2019-01-25T11:25:43.754Z,42.10
2019-01-25T11:28:13.022Z,42.93
2019-01-25T11:30:42.411Z,49.00
2019-01-25T11:33:42.195Z,45.77
2019-01-25T11:36:11.450Z,46.73
2019-01-25T11:38:40.788Z,46.40
2019-01-25T11:41:14.066Z,46.70
2019-01-25T11:47:24.213Z,44.37
2019-01-25T11:49:53.791Z,51.40
2019-01-25T11:56:46.296Z,49.27
2019-01-25T12:02:56.323Z,51.13
2019-01-25T12:05:25.645Z,50.07
2019-01-25T12:07:54.985Z,43.40
2019-01-25T12:17:20.828Z,48.60
2019-01-25T12:23:42.349Z,44.33
2019-01-25T12:29:40.119Z,49.50
2019-01-25T12:32:30.150Z,47.20
2019-01-25T12:35:01.774Z,51.10
2019-01-25T12:41:00.337Z,44.13
2019-01-25T12:43:54.309Z,42.57
2019-01-25T12:49:55.225Z,34.03
2019-01-25T12:56:24.182Z,36.00
2019-01-25T13:05:50.880Z,29.47
2019-01-25T13:11:48.853Z,29.47
2019-01-25T13:14:36.303Z,27.00
2019-01-25T13:24:15.100Z,21.60
2019-01-25T13:30:01.431Z,23.50
2019-01-25T13:36:12.014Z,20.57
2019-01-25T13:38:41.376Z,19.67
2019-01-25T13:41:59.378Z,18.83
2019-01-25T13:44:30.365Z,19.73
2019-01-25T13:54:09.481Z,15.80
2019-01-25T13:56:38.846Z,19.13
2019-01-25T13:59:08.129Z,12.73
2019-01-25T14:01:37.362Z,16.83
2019-01-25T14:07:35.090Z,12.67
2019-01-25T14:10:58.460Z,15.00
2019-01-25T14:17:08.718Z,15.27
2019-01-25T14:23:06.725Z,15.17
2019-01-25T14:29:34.285Z,18.13
2019-01-25T14:32:03.681Z,16.70
2019-01-25T14:34:32.905Z,15.47
2019-01-25T14:37:02.042Z,14.77
2019-01-25T14:44:05.430Z,14.37
2019-01-25T14:47:17.427Z,17.47
2019-01-25T14:49:46.766Z,17.00
2019-01-25T14:52:19.164Z,17.57
2019-01-25T14:58:31.058Z,20.87
2019-01-25T15:04:28.859Z,17.27
2019-01-25T15:17:23.664Z,21.23
2019-01-25T15:20:09.159Z,20.80
2019-01-25T15:26:08.037Z,17.87
2019-01-25T15:28:37.334Z,16.70
2019-01-25T15:32:04.340Z,15.57
2019-01-25T15:34:37.287Z,19.00
2019-01-25T15:37:06.542Z,20.00
2019-01-25T15:40:47.942Z,15.33
2019-01-25T15:46:45.305Z,16.63
2019-01-25T15:49:59.636Z,14.83
2019-01-25T15:52:28.881Z,16.63
2019-01-25T15:55:18.489Z,17.90
2019-01-25T15:57:47.883Z,13.40
2019-01-25T16:00:20.913Z,18.80
2019-01-25T16:03:01.565Z,19.00
2019-01-25T16:05:30.922Z,18.13
2019-01-25T16:11:28.790Z,20.00
2019-01-25T16:14:07.178Z,16.27
2019-01-25T16:20:17.967Z,14.90
2019-01-25T16:22:55.215Z,17.30
2019-01-25T16:25:42.290Z,19.63
2019-01-25T16:28:11.603Z,17.70
2019-01-25T16:31:06.822Z,18.77
2019-01-25T16:33:36.389Z,16.30
2019-01-25T16:36:05.790Z,15.33
2019-01-25T16:42:04.053Z,17.93
2019-01-25T16:44:33.588Z,14.20
2019-01-25T16:47:02.891Z,20.03
2019-01-25T16:49:32.261Z,20.53
2019-01-25T16:52:01.557Z,18.50
2019-01-25T16:54:31.238Z,24.67
2019-01-25T16:57:41.490Z,17.50
2019-01-25T17:00:18.075Z,17.90
2019-01-25T17:06:28.142Z,14.90
2019-01-25T17:09:18.309Z,15.13
2019-01-25T17:15:28.777Z,15.23
2019-01-25T17:17:57.992Z,18.27
2019-01-25T17:21:11.485Z,15.63
2019-01-25T17:24:17.453Z,13.50
2019-01-25T17:26:47.315Z,15.87
2019-01-25T17:29:35.510Z,13.80
2019-01-25T17:32:04.924Z,14.07
2019-01-25T17:34:37.234Z,13.30
2019-01-25T17:37:06.578Z,16.10
2019-01-25T17:39:43.230Z,12.97
2019-01-25T17:42:12.554Z,15.60
2019-01-25T17:45:07.729Z,14.47
2019-01-25T17:47:37.458Z,12.80
2019-01-25T17:50:08.093Z,16.73
2019-01-25T17:56:06.207Z,13.60
2019-01-25T17:58:35.542Z,13.77
2019-01-25T18:04:34.029Z,12.50
2019-01-25T18:07:07.282Z,11.80
2019-01-25T18:09:36.654Z,12.97
2019-01-25T18:15:50.063Z,9.93
2019-01-25T18:21:49.277Z,16.63
2019-01-25T18:24:19.344Z,10.63
2019-01-25T18:30:47.592Z,12.10
2019-01-25T18:33:16.985Z,11.23
2019-01-25T18:35:46.725Z,10.90
2019-01-25T18:38:15.972Z,10.00
2019-01-25T18:40:45.237Z,9.53
2019-01-25T18:43:14.893Z,8.90
2019-01-25T18:45:44.278Z,9.50
2019-01-25T18:48:13.528Z,8.97
2019-01-25T18:50:42.850Z,8.43
2019-01-25T18:53:12.300Z,8.60
2019-01-25T18:55:43.281Z,8.87
2019-01-25T18:58:12.637Z,10.40
2019-01-25T19:01:12.391Z,13.80
2019-01-25T19:07:10.323Z,7.13
2019-01-25T19:13:25.365Z,8.63
2019-01-25T19:16:41.646Z,7.13
2019-01-25T19:19:11.039Z,7.80
2019-01-25T19:26:04.447Z,8.50
2019-01-25T19:28:33.806Z,8.47
2019-01-25T19:31:41.776Z,8.33
2019-01-25T19:34:11.119Z,6.30
2019-01-25T19:36:40.378Z,7.00
2019-01-25T19:39:12.698Z,6.63
2019-01-25T19:42:45.286Z,6.90
2019-01-25T19:45:59.600Z,8.13
2019-01-25T19:49:22.566Z,6.80
2019-01-25T19:51:55.480Z,5.90
2019-01-25T19:55:17.782Z,9.10
2019-01-25T19:57:47.137Z,5.77
2019-01-25T20:00:42.478Z,8.43
2019-01-25T20:11:05.577Z,6.07
2019-01-25T20:13:34.993Z,5.90
2019-01-25T20:16:13.474Z,6.97
2019-01-25T20:19:52.639Z,6.60
2019-01-25T20:22:25.410Z,5.17
2019-01-25T20:24:55.298Z,7.23
2019-01-25T20:27:24.630Z,4.90
2019-01-25T20:29:55.342Z,4.40
2019-01-25T20:32:24.634Z,6.77
2019-01-25T20:38:44.083Z,4.47
2019-01-25T20:41:13.355Z,4.67
2019-01-25T20:43:42.690Z,5.00
2019-01-25T20:46:19.426Z,5.00
2019-01-25T20:48:48.653Z,7.97
2019-01-25T20:51:17.940Z,4.67
2019-01-25T20:53:47.229Z,5.40
2019-01-25T20:56:16.601Z,4.77
2019-01-25T20:58:45.824Z,4.80
2019-01-25T21:01:15.101Z,5.97
2019-01-25T21:03:44.508Z,4.87
2019-01-25T21:09:42.463Z,5.53
2019-01-25T21:12:11.817Z,3.80
2019-01-25T21:19:16.618Z,4.40
2019-01-25T21:25:14.910Z,13.93
2019-01-25T21:27:44.262Z,6.13
2019-01-25T21:30:46.558Z,4.23
2019-01-25T21:39:25.537Z,3.50
2019-01-25T21:42:52.553Z,2.70
2019-01-25T21:49:02.536Z,2.70
2019-01-25T21:51:31.878Z,3.23
2019-01-25T21:54:01.180Z,2.47
2019-01-25T21:56:31.452Z,2.80
2019-01-25T21:59:00.846Z,2.13
2019-01-25T22:02:11.669Z,2.30
2019-01-25T22:04:41.013Z,2.10
2019-01-25T22:07:10.308Z,1.80
2019-01-25T22:13:08.115Z,2.20
2019-01-25T22:15:37.400Z,1.97
2019-01-25T22:18:07.457Z,2.10
2019-01-25T22:20:36.835Z,2.13
2019-01-25T22:23:06.098Z,2.10
2019-01-25T22:26:23.897Z,2.03
2019-01-25T22:31:57.492Z,1.73
2019-01-25T22:34:26.848Z,1.70
2019-01-25T22:37:24.658Z,1.70
2019-01-25T22:39:53.926Z,2.07
2019-01-25T22:46:03.825Z,1.80
2019-01-25T22:48:33.539Z,1.80
2019-01-25T22:54:32.133Z,1.63
2019-01-25T23:00:52.066Z,1.47
2019-01-25T23:03:57.715Z,1.60
2019-01-25T23:09:58.065Z,1.67
2019-01-25T23:13:22.738Z,1.83
2019-01-25T23:15:52.177Z,2.47
2019-01-25T23:22:53.705Z,2.47
2019-01-25T23:28:50.875Z,3.97
2019-01-25T23:35:12.742Z,2.50
2019-01-25T23:38:17.708Z,2.57
2019-01-25T23:40:46.957Z,2.83
2019-01-25T23:46:45.029Z,2.77
2019-01-25T23:52:55.305Z,2.90
2019-01-25T23:55:42.729Z,3.50
2019-01-25T23:58:12.017Z,3.40
